Time,TemperatureF,DewpointF,PressureIn,WindDirection,WindDirectionDegrees,WindSpeedMPH,WindSpeedGustMPH,Humidity,HourlyPrecipIn,Conditions,Clouds,dailyrainin,SoftwareType,DateUTC
2013-02-04 00:00:00,48.6,44.3,30.03,East,100,2.0,7.0,85,0.00,,---,0.00,VWS V14.00,2013-02-04 08:00:00,
2013-02-04 00:02:00,50.8,45.2,30.04,East,84,0.0,3.0,81,0.00,,---,0.00,VWS V14.00,2013-02-04 08:02:00,
2013-02-04 00:06:00,50.7,45.0,30.04,ESE,106,1.0,2.0,82,0.00,,,0.00,weatherlink.com 1.10,2013-02-04 08:06:00,
2013-02-04 00:22:00,49.6,45.0,30.04,ESE,108,0.0,2.0,83,0.00,,,0.00,weatherlink.com 1.10,2013-02-04 08:22:00,
2013-02-04 00:30:00,48.3,43.7,30.03,SE,130,1.0,4.0,84,0.00,,---,0.00,VWS V14.00,2013-02-04 08:30:00,
2013-02-04 00:32:00,49.1,44.5,30.04,ESE,108,0.0,2.0,84,0.00,,---,0.00,VWS V14.00,2013-02-04 08:32:00,
2013-02-04 00:40:00,49.0,45.0,30.04,ESE,115,0.0,1.0,85,0.00,,,0.00,weatherlink.com 1.10,2013-02-04 08:40:00,
2013-02-04 00:57:00,48.4,44.0,30.03,East,86,2.0,7.0,85,0.00,,,0.00,weatherlink.com 1.10,2013-02-04 08:57:00,
2013-02-04 01:00:00,49.0,44.7,30.03,ESE,107,3.0,3.0,85,0.00,,---,0.00,VWS V14.00,2013-02-04 09:00:00,
2013-02-04 01:02:00,48.6,44.3,30.03,East,100,2.0,7.0,85,0.00,,---,0.00,VWS V14.00,2013-02-04 09:02:00,
2013-02-04 01:14:00,48.9,45.0,30.03,ESE,113,1.0,4.0,85,0.00,,,0.00,weatherlink.com 1.10,2013-02-04 09:14:00,
2013-02-04 01:30:00,47.4,43.4,30.02,SE,126,0.0,3.0,86,0.00,,---,0.00,VWS V14.00,2013-02-04 09:30:00,
2013-02-04 01:32:00,48.3,43.7,30.03,SE,130,1.0,4.0,84,0.00,,---,0.00,VWS V14.00,2013-02-04 09:32:00,
2013-02-04 01:49:00,48.3,44.0,30.03,East,98,0.0,1.0,85,0.00,,,0.00,weatherlink.com 1.10,2013-02-04 09:49:00,
2013-02-04 02:00:00,46.8,43.1,30.02,ESE,103,3.0,5.0,87,0.00,,---,0.00,VWS V14.00,2013-02-04 10:00:00,
2013-02-04 02:02:00,49.0,44.7,30.03,ESE,107,3.0,3.0,85,0.00,,---,0.00,VWS V14.00,2013-02-04 10:02:00,
2013-02-04 02:06:00,49.0,45.0,30.03,East,92,1.0,3.0,85,0.00,,,0.00,weatherlink.com 1.10,2013-02-04 10:06:00,
2013-02-04 02:24:00,48.0,44.0,30.03,SE,126,1.0,2.0,85,0.00,,,0.00,weatherlink.com 1.10,2013-02-04 10:24:00,
2013-02-04 02:30:00,47.0,43.0,30.02,ESE,105,2.0,5.0,86,0.00,,---,0.00,VWS V14.00,2013-02-04 10:30:00,
2013-02-04 02:32:00,47.4,43.4,30.02,SE,126,0.0,3.0,86,0.00,,---,0.00,VWS V14.00,2013-02-04 10:32:00,
2013-02-04 02:40:00,47.1,44.0,30.02,SE,128,1.0,2.0,87,0.00,,,0.00,weatherlink.com 1.10,2013-02-04 10:40:00,
2013-02-04 02:58:00,46.7,43.0,30.02,ESE,105,4.0,5.0,87,0.00,,,0.00,weatherlink.com 1.10,2013-02-04 10:58:00,
2013-02-04 03:00:00,46.0,42.7,30.01,East,81,0.0,5.0,88,0.00,,---,0.00,VWS V14.00,2013-02-04 11:00:00,
2013-02-04 03:16:00,47.3,43.0,30.02,ESE,117,1.0,6.0,86,0.00,,,0.00,weatherlink.com 1.10,2013-02-04 11:16:00,
2013-02-04 03:30:00,46.8,43.1,30.01,ESE,109,2.0,3.0,87,0.00,,---,0.00,VWS V14.00,2013-02-04 11:30:00,
2013-02-04 03:32:00,47.0,43.0,30.02,ESE,105,2.0,5.0,86,0.00,,---,0.00,VWS V14.00,2013-02-04 11:32:00,
2013-02-04 03:50:00,45.7,42.0,30.02,East,91,2.0,6.0,88,0.00,,,0.00,weatherlink.com 1.10,2013-02-04 11:50:00,
2013-02-04 04:00:00,44.8,41.5,30.01,ESE,122,1.0,5.0,88,0.00,,---,0.00,VWS V14.00,2013-02-04 12:00:00,
2013-02-04 04:02:00,46.0,42.7,30.01,East,81,0.0,5.0,88,0.00,,---,0.00,VWS V14.00,2013-02-04 12:02:00,
2013-02-04 04:07:00,46.3,43.0,30.02,East,89,1.0,2.0,87,0.00,,,0.00,weatherlink.com 1.10,2013-02-04 12:07:00,
2013-02-04 04:24:00,46.5,43.0,30.02,East,98,0.0,1.0,87,0.00,,,0.00,weatherlink.com 1.10,2013-02-04 12:24:00,
2013-02-04 04:30:00,44.6,41.8,30.02,East,94,1.0,4.0,90,0.00,,---,0.00,VWS V14.00,2013-02-04 12:30:00,
2013-02-04 04:32:00,46.8,43.1,30.01,ESE,109,2.0,3.0,87,0.00,,---,0.00,VWS V14.00,2013-02-04 12:32:00,
2013-02-04 04:41:00,46.3,43.0,30.02,East,98,2.0,5.0,87,0.00,,,0.00,weatherlink.com 1.10,2013-02-04 12:41:00,
2013-02-04 04:58:00,44.9,42.0,30.02,SE,129,0.0,3.0,89,0.00,,,0.00,weatherlink.com 1.10,2013-02-04 12:58:00,
2013-02-04 05:00:00,45.6,42.5,30.01,ESE,107,2.0,3.0,89,0.00,,---,0.00,VWS V14.00,2013-02-04 13:00:00,
2013-02-04 05:16:00,44.4,41.0,30.02,ESE,110,2.0,2.0,89,0.00,,,0.00,weatherlink.com 1.10,2013-02-04 13:16:00,
2013-02-04 05:30:00,45.3,42.3,30.02,ESE,102,0.0,7.0,89,0.00,,---,0.00,VWS V14.00,2013-02-04 13:30:00,
2013-02-04 05:32:00,44.6,41.8,30.02,East,94,1.0,4.0,90,0.00,,---,0.00,VWS V14.00,2013-02-04 13:32:00,
2013-02-04 05:50:00,45.5,43.0,30.02,East,94,1.0,3.0,89,0.00,,,0.00,weatherlink.com 1.10,2013-02-04 13:50:00,
2013-02-04 06:00:00,44.6,41.3,30.03,SE,135,1.0,7.0,88,0.00,,---,0.00,VWS V14.00,2013-02-04 14:00:00,
2013-02-04 06:02:00,45.6,42.5,30.01,ESE,107,2.0,3.0,89,0.00,,---,0.00,VWS V14.00,2013-02-04 14:02:00,
2013-02-04 06:07:00,45.8,43.0,30.02,SE,127,3.0,7.0,88,0.00,,,0.00,weatherlink.com 1.10,2013-02-04 14:07:00,
2013-02-04 06:25:00,44.9,42.0,30.01,East,86,0.0,3.0,89,0.00,,,0.00,weatherlink.com 1.10,2013-02-04 14:25:00,
2013-02-04 06:30:00,47.3,42.7,30.04,SE,134,2.0,4.0,84,0.00,,---,0.00,VWS V14.00,2013-02-04 14:30:00,
2013-02-04 06:32:00,45.3,42.3,30.02,ESE,102,0.0,7.0,89,0.00,,---,0.00,VWS V14.00,2013-02-04 14:32:00,
2013-02-04 06:41:00,45.8,42.0,30.02,SE,126,5.0,7.0,87,0.00,,,0.00,weatherlink.com 1.10,2013-02-04 14:41:00,
2013-02-04 06:59:00,44.5,41.0,30.02,SE,132,1.0,6.0,88,0.00,,,0.00,weatherlink.com 1.10,2013-02-04 14:59:00,
2013-02-04 07:00:00,50.6,45.0,30.05,ENE,62,1.0,3.0,81,0.00,,---,0.00,VWS V14.00,2013-02-04 15:00:00,
2013-02-04 07:17:00,47.3,43.0,30.03,SE,128,2.0,2.0,85,0.00,,,0.00,weatherlink.com 1.10,2013-02-04 15:17:00,
2013-02-04 07:30:00,52.3,48.9,30.06,SSW,213,0.0,5.0,88,0.00,,---,0.00,VWS V14.00,2013-02-04 15:30:00,
2013-02-04 07:32:00,47.3,42.7,30.04,SE,134,2.0,4.0,84,0.00,,---,0.00,VWS V14.00,2013-02-04 15:32:00,
2013-02-04 07:34:00,47.2,43.0,30.04,SE,140,3.0,3.0,84,0.00,,,0.00,weatherlink.com 1.10,2013-02-04 15:34:00,
2013-02-04 07:51:00,48.8,44.0,30.05,ESE,112,0.0,2.0,84,0.00,,,0.00,weatherlink.com 1.10,2013-02-04 15:51:00,
2013-02-04 08:00:00,56.4,48.9,30.06,SE,134,1.0,4.0,76,0.00,,---,0.00,VWS V14.00,2013-02-04 16:00:00,
2013-02-04 08:02:00,50.6,45.0,30.05,ENE,62,1.0,3.0,81,0.00,,---,0.00,VWS V14.00,2013-02-04 16:02:00,
2013-02-04 08:08:00,50.5,45.0,30.05,NW,306,3.0,3.0,82,0.00,,,0.00,weatherlink.com 1.10,2013-02-04 16:08:00,
2013-02-04 08:26:00,51.8,48.0,30.06,West,281,0.0,5.0,88,0.00,,,0.00,weatherlink.com 1.10,2013-02-04 16:26:00,
2013-02-04 08:30:00,55.8,50.4,30.07,SSW,197,0.0,5.0,82,0.00,,---,0.00,VWS V14.00,2013-02-04 16:30:00,
2013-02-04 08:32:00,52.3,48.9,30.06,SSW,213,0.0,5.0,88,0.00,,---,0.00,VWS V14.00,2013-02-04 16:32:00,
2013-02-04 08:43:00,54.3,50.0,30.06,SE,144,1.0,2.0,85,0.00,,,0.00,weatherlink.com 1.10,2013-02-04 16:43:00,
2013-02-04 09:00:00,56.3,48.0,30.06,ESE,112,0.0,3.0,75,0.00,,,0.00,weatherlink.com 1.10,2013-02-04 17:00:00,
2013-02-04 09:02:00,56.4,48.9,30.06,SE,134,1.0,4.0,76,0.00,,---,0.00,VWS V14.00,2013-02-04 17:02:00,
2013-02-04 09:17:00,56.2,49.0,30.07,SSW,194,3.0,4.0,78,0.00,,,0.00,weatherlink.com 1.10,2013-02-04 17:17:00,
2013-02-04 09:30:00,55.6,50.8,30.08,SW,217,2.0,8.0,84,0.00,,---,0.00,VWS V14.00,2013-02-04 17:30:00,
2013-02-04 09:32:00,55.8,50.4,30.07,SSW,197,0.0,5.0,82,0.00,,---,0.00,VWS V14.00,2013-02-04 17:32:00,
2013-02-04 09:34:00,55.9,50.0,30.07,SW,234,0.0,5.0,81,0.00,,,0.00,weatherlink.com 1.10,2013-02-04 17:34:00,
2013-02-04 09:52:00,54.9,50.0,30.08,WNW,300,3.0,6.0,84,0.00,,,0.00,weatherlink.com 1.10,2013-02-04 17:52:00,
2013-02-04 10:00:00,56.9,50.8,30.07,SSE,149,5.0,8.0,80,0.00,,---,0.00,VWS V14.00,2013-02-04 18:00:00,
2013-02-04 10:02:00,55.4,50.7,30.08,SSW,206,3.0,6.0,84,0.00,,---,0.00,VWS V14.00,2013-02-04 18:02:00,
2013-02-04 10:10:00,56.6,51.0,30.08,SW,217,3.0,6.0,81,0.00,,,0.00,weatherlink.com 1.10,2013-02-04 18:10:00,
2013-02-04 10:26:00,55.2,50.0,30.08,WSW,250,5.0,8.0,83,0.00,,,0.00,weatherlink.com 1.10,2013-02-04 18:26:00,
2013-02-04 10:30:00,55.4,50.7,30.06,West,271,7.0,9.0,84,0.00,,---,0.00,VWS V14.00,2013-02-04 18:30:00,
2013-02-04 10:32:00,55.6,50.8,30.08,SW,217,2.0,8.0,84,0.00,,---,0.00,VWS V14.00,2013-02-04 18:32:00,
2013-02-04 10:44:00,56.7,51.0,30.08,SSE,159,4.0,6.0,81,0.00,,,0.00,weatherlink.com 1.10,2013-02-04 18:44:00,
2013-02-04 11:00:00,54.3,50.5,30.05,West,265,8.0,9.0,87,0.00,,---,0.00,VWS V14.00,2013-02-04 19:00:00,
2013-02-04 11:01:00,56.9,51.0,30.07,SSE,159,4.0,8.0,80,0.00,,,0.00,weatherlink.com 1.10,2013-02-04 19:01:00,
2013-02-04 11:02:00,56.9,50.8,30.07,SSE,149,5.0,8.0,80,0.00,,---,0.00,VWS V14.00,2013-02-04 19:02:00,
2013-02-04 11:19:00,56.7,51.0,30.07,West,261,2.0,5.0,81,0.00,,,0.00,weatherlink.com 1.10,2013-02-04 19:19:00,
2013-02-04 11:30:00,54.7,50.9,30.03,WSW,244,5.0,9.0,87,0.00,,---,0.00,VWS V14.00,2013-02-04 19:30:00,
2013-02-04 11:32:00,55.4,50.7,30.06,West,271,7.0,9.0,84,0.00,,---,0.00,VWS V14.00,2013-02-04 19:32:00,
2013-02-04 11:35:00,55.0,50.0,30.06,West,279,6.0,9.0,84,0.00,,,0.00,weatherlink.com 1.10,2013-02-04 19:35:00,
2013-02-04 11:53:00,54.7,51.0,30.06,West,267,5.0,8.0,86,0.00,,,0.00,weatherlink.com 1.10,2013-02-04 19:53:00,
2013-02-04 12:00:00,53.0,50.5,30.02,West,265,8.0,9.0,91,0.00,,---,0.00,VWS V14.00,2013-02-04 20:00:00,
2013-02-04 12:02:00,54.3,50.5,30.05,West,265,8.0,9.0,87,0.00,,---,0.00,VWS V14.00,2013-02-04 20:02:00,
2013-02-04 12:10:00,55.1,51.0,30.05,West,274,8.0,10.0,86,0.00,,,0.00,weatherlink.com 1.10,2013-02-04 20:10:00,
2013-02-04 12:27:00,54.5,51.0,30.05,WSW,256,1.0,7.0,87,0.00,,,0.00,weatherlink.com 1.10,2013-02-04 20:27:00,
2013-02-04 12:30:00,52.4,50.4,30.01,WSW,254,4.0,10.0,93,0.00,,---,0.00,VWS V14.00,2013-02-04 20:30:00,
2013-02-04 12:32:00,54.7,50.9,30.03,WSW,244,5.0,9.0,87,0.00,,---,0.00,VWS V14.00,2013-02-04 20:32:00,
2013-02-04 12:45:00,54.0,51.0,30.03,West,274,2.0,9.0,88,0.00,,,0.00,weatherlink.com 1.10,2013-02-04 20:45:00,
2013-02-04 13:00:00,52.8,51.1,30.00,SSW,213,2.0,8.0,94,0.00,,---,0.00,VWS V14.00,2013-02-04 21:00:00,
2013-02-04 13:02:00,53.0,50.5,30.02,West,265,8.0,9.0,91,0.00,,---,0.00,VWS V14.00,2013-02-04 21:02:00,
2013-02-04 13:19:00,53.0,51.0,30.02,NW,310,3.0,10.0,92,0.00,,,0.00,weatherlink.com 1.10,2013-02-04 21:19:00,
2013-02-04 13:30:00,52.5,50.8,29.99,WSW,251,5.0,11.0,94,0.00,,---,0.00,VWS V14.00,2013-02-04 21:30:00,
2013-02-04 13:32:00,52.4,50.4,30.01,WSW,254,4.0,10.0,93,0.00,,---,0.00,VWS V14.00,2013-02-04 21:32:00,
2013-02-04 13:37:00,52.7,51.0,30.01,WNW,299,3.0,9.0,93,0.00,,,0.00,weatherlink.com 1.10,2013-02-04 21:37:00,
2013-02-04 13:54:00,53.1,51.0,30.00,West,271,6.0,8.0,93,0.00,,,0.00,weatherlink.com 1.10,2013-02-04 21:54:00,
2013-02-04 14:00:00,52.1,50.7,29.99,WNW,288,8.0,14.0,95,0.00,,---,0.00,VWS V14.00,2013-02-04 22:00:00,
2013-02-04 14:02:00,52.8,51.1,30.00,SSW,213,2.0,8.0,94,0.00,,---,0.00,VWS V14.00,2013-02-04 22:02:00,
2013-02-04 14:11:00,52.7,51.0,30.00,WSW,238,4.0,10.0,92,0.00,,,0.00,weatherlink.com 1.10,2013-02-04 22:11:00,
2013-02-04 14:28:00,52.6,51.0,30.00,WNW,282,6.0,10.0,94,0.00,,,0.00,weatherlink.com 1.10,2013-02-04 22:28:00,
2013-02-04 14:30:00,51.9,50.8,29.98,WNW,300,7.0,13.0,96,0.00,,---,0.00,VWS V14.00,2013-02-04 22:30:00,
2013-02-04 14:32:00,52.5,50.8,29.99,WSW,251,5.0,11.0,94,0.00,,---,0.00,VWS V14.00,2013-02-04 22:32:00,
2013-02-04 14:46:00,52.2,51.0,29.99,WNW,284,7.0,14.0,94,0.00,,,0.00,weatherlink.com 1.10,2013-02-04 22:46:00,
2013-02-04 15:00:00,51.8,50.7,29.98,WSW,253,3.0,11.0,96,0.00,,---,0.00,VWS V14.00,2013-02-04 23:00:00,
2013-02-04 15:02:00,52.1,50.7,29.99,WNW,288,8.0,14.0,95,0.00,,---,0.00,VWS V14.00,2013-02-04 23:02:00,
2013-02-04 15:04:00,52.2,51.0,29.98,West,266,8.0,13.0,95,0.00,,,0.00,weatherlink.com 1.10,2013-02-04 23:04:00,
2013-02-04 15:20:00,51.8,51.0,29.98,WSW,248,9.0,13.0,95,0.00,,,0.00,weatherlink.com 1.10,2013-02-04 23:20:00,
2013-02-04 15:30:00,51.5,50.4,29.98,WNW,298,3.0,9.0,96,0.00,,---,0.00,VWS V14.00,2013-02-04 23:30:00,
2013-02-04 15:32:00,51.9,50.8,29.98,WNW,300,7.0,13.0,96,0.00,,---,0.00,VWS V14.00,2013-02-04 23:32:00,
2013-02-04 15:38:00,51.9,51.0,29.98,WNW,290,3.0,12.0,96,0.00,,,0.00,weatherlink.com 1.10,2013-02-04 23:38:00,
2013-02-04 15:55:00,51.8,51.0,29.98,West,271,5.0,10.0,96,0.00,,,0.00,weatherlink.com 1.10,2013-02-04 23:55:00,
2013-02-04 16:00:00,51.5,50.7,29.97,West,262,3.0,6.0,97,0.00,,---,0.00,VWS V14.00,2013-02-05 00:00:00,
2013-02-04 16:02:00,51.8,50.7,29.98,WSW,253,3.0,11.0,96,0.00,,---,0.00,VWS V14.00,2013-02-05 00:02:00,
2013-02-04 16:12:00,51.8,51.0,29.98,WNW,294,6.0,9.0,96,0.00,,,0.00,weatherlink.com 1.10,2013-02-05 00:12:00,
2013-02-04 16:30:00,51.5,50.0,29.98,WNW,295,3.0,8.0,96,0.00,,,0.00,weatherlink.com 1.10,2013-02-05 00:30:00,
2013-02-04 16:32:00,51.5,50.4,29.98,WNW,298,3.0,9.0,96,0.00,,---,0.00,VWS V14.00,2013-02-05 00:32:00,
2013-02-04 16:47:00,51.5,50.0,29.97,West,260,3.0,5.0,96,0.00,,,0.00,weatherlink.com 1.10,2013-02-05 00:47:00,
2013-02-04 17:00:00,51.0,50.2,30.00,SW,236,2.0,8.0,97,0.00,,---,0.00,VWS V14.00,2013-02-05 01:00:00,
2013-02-04 17:02:00,51.5,50.7,29.97,West,262,3.0,6.0,97,0.00,,---,0.00,VWS V14.00,2013-02-05 01:02:00,
2013-02-04 17:04:00,51.4,51.0,29.97,WSW,252,0.0,4.0,97,0.00,,,0.00,weatherlink.com 1.10,2013-02-05 01:04:00,
2013-02-04 17:21:00,51.6,51.0,29.97,SSW,200,0.0,3.0,97,0.00,,,0.00,weatherlink.com 1.10,2013-02-05 01:21:00,
2013-02-04 17:30:00,50.4,49.6,30.00,WSW,244,0.0,9.0,97,0.00,,---,0.00,VWS V14.00,2013-02-05 01:30:00,
2013-02-04 17:32:00,51.5,50.7,29.98,WSW,240,4.0,4.0,97,0.00,,---,0.00,VWS V14.00,2013-02-05 01:32:00,
2013-02-04 17:39:00,51.4,51.0,29.98,WSW,254,6.0,7.0,97,0.00,,,0.00,weatherlink.com 1.10,2013-02-05 01:39:00,
2013-02-04 17:56:00,51.0,50.0,29.99,SW,228,5.0,8.0,97,0.00,,,0.00,weatherlink.com 1.10,2013-02-05 01:56:00,
2013-02-04 18:00:00,50.8,50.0,30.02,SSE,154,0.0,7.0,97,0.00,,---,0.00,VWS V14.00,2013-02-05 02:00:00,
2013-02-04 18:02:00,51.0,50.2,30.00,SW,236,2.0,8.0,97,0.00,,---,0.00,VWS V14.00,2013-02-05 02:02:00,
2013-02-04 18:13:00,50.6,50.0,30.00,WSW,246,4.0,9.0,97,0.00,,,0.00,weatherlink.com 1.10,2013-02-05 02:13:00,
2013-02-04 18:30:00,50.5,50.0,30.00,SSW,213,0.0,5.0,97,0.00,,,0.00,weatherlink.com 1.10,2013-02-05 02:30:00,
2013-02-04 18:48:00,50.7,50.0,30.01,SW,222,3.0,7.0,97,0.00,,,0.00,weatherlink.com 1.10,2013-02-05 02:48:00,
2013-02-04 19:00:00,51.3,50.5,30.05,West,274,1.0,6.0,97,0.00,,---,0.00,VWS V14.00,2013-02-05 03:00:00,
2013-02-04 19:02:00,50.8,50.0,30.02,SSE,154,0.0,7.0,97,0.00,,---,0.00,VWS V14.00,2013-02-05 03:02:00,
2013-02-04 19:22:00,50.9,50.0,30.03,WSW,247,1.0,5.0,97,0.00,,,0.00,weatherlink.com 1.10,2013-02-05 03:22:00,
2013-02-04 19:30:00,51.1,50.3,30.06,West,265,0.0,5.0,97,0.00,,---,0.00,VWS V14.00,2013-02-05 03:30:00,
2013-02-04 19:32:00,50.9,50.1,30.03,West,271,6.0,6.0,97,0.00,,---,0.00,VWS V14.00,2013-02-05 03:32:00,
2013-02-04 19:40:00,51.1,50.0,30.03,WNW,285,6.0,6.0,97,0.00,,,0.00,weatherlink.com 1.10,2013-02-05 03:40:00,
2013-02-04 19:56:00,51.3,51.0,30.04,West,263,1.0,5.0,97,0.00,,,0.00,weatherlink.com 1.10,2013-02-05 03:56:00,
2013-02-04 20:00:00,51.3,50.5,30.07,South,175,0.0,3.0,97,0.00,,---,0.00,VWS V14.00,2013-02-05 04:00:00,
2013-02-04 20:02:00,51.3,50.5,30.05,West,274,1.0,6.0,97,0.00,,---,0.00,VWS V14.00,2013-02-05 04:02:00,
2013-02-04 20:14:00,51.3,51.0,30.05,West,262,1.0,5.0,97,0.00,,,0.00,weatherlink.com 1.10,2013-02-05 04:14:00,
2013-02-04 20:30:00,51.4,50.6,30.07,North,351,2.0,3.0,97,0.00,,---,0.00,VWS V14.00,2013-02-05 04:30:00,
2013-02-04 20:31:00,51.1,50.0,30.06,West,265,1.0,4.0,97,0.00,,,0.00,weatherlink.com 1.10,2013-02-05 04:31:00,
2013-02-04 20:32:00,51.1,50.3,30.06,West,265,0.0,5.0,97,0.00,,---,0.00,VWS V14.00,2013-02-05 04:32:00,
2013-02-04 20:49:00,51.2,50.0,30.07,WNW,292,0.0,2.0,97,0.00,,,0.00,weatherlink.com 1.10,2013-02-05 04:49:00,
2013-02-04 21:00:00,51.4,50.6,30.07,ESE,118,0.0,3.0,97,0.00,,---,0.00,VWS V14.00,2013-02-05 05:00:00,
2013-02-04 21:02:00,51.3,50.5,30.07,South,175,0.0,3.0,97,0.00,,---,0.00,VWS V14.00,2013-02-05 05:02:00,
2013-02-04 21:05:00,51.2,50.0,30.07,South,175,1.0,2.0,97,0.00,,,0.00,weatherlink.com 1.10,2013-02-05 05:05:00,
2013-02-04 21:23:00,51.3,51.0,30.07,SW,223,0.0,2.0,97,0.00,,,0.00,weatherlink.com 1.10,2013-02-05 05:23:00,
2013-02-04 21:30:00,51.4,50.6,30.07,WSW,257,0.0,3.0,97,0.00,,---,0.00,VWS V14.00,2013-02-05 05:30:00,
2013-02-04 21:32:00,51.4,50.6,30.07,North,351,2.0,3.0,97,0.00,,---,0.00,VWS V14.00,2013-02-05 05:32:00,
2013-02-04 21:39:00,51.2,50.0,30.07,NNW,348,0.0,3.0,97,0.00,,,0.00,weatherlink.com 1.10,2013-02-05 05:39:00,
2013-02-04 21:57:00,51.3,51.0,30.07,NE,34,0.0,0.0,97,0.00,,,0.00,weatherlink.com 1.10,2013-02-05 05:57:00,
2013-02-04 22:00:00,51.2,50.4,30.06,East,99,2.0,5.0,97,0.00,,---,0.00,VWS V14.00,2013-02-05 06:00:00,
2013-02-04 22:02:00,51.4,50.6,30.07,ESE,118,0.0,3.0,97,0.00,,---,0.00,VWS V14.00,2013-02-05 06:02:00,
2013-02-04 22:14:00,51.3,51.0,30.07,West,259,1.0,3.0,97,0.00,,,0.00,weatherlink.com 1.10,2013-02-05 06:14:00,
2013-02-04 22:30:00,51.0,50.2,30.06,ENE,68,2.0,8.0,97,0.00,,---,0.00,VWS V14.00,2013-02-05 06:30:00,
2013-02-04 22:32:00,51.4,51.0,30.07,WSW,257,0.0,0.0,97,0.00,,,0.00,weatherlink.com 1.10,2013-02-05 06:32:00,
2013-02-04 22:48:00,51.3,51.0,30.07,SE,132,2.0,3.0,97,0.00,,,0.00,weatherlink.com 1.10,2013-02-05 06:48:00,
2013-02-04 23:00:00,50.3,49.5,30.06,East,96,0.0,7.0,97,0.00,,---,0.00,VWS V14.00,2013-02-05 07:00:00,
2013-02-04 23:02:00,51.2,50.4,30.06,East,99,2.0,5.0,97,0.00,,---,0.00,VWS V14.00,2013-02-05 07:02:00,
2013-02-04 23:23:00,50.9,50.0,30.06,ESE,121,0.0,8.0,97,0.00,,,0.00,weatherlink.com 1.10,2013-02-05 07:23:00,
2013-02-04 23:30:00,49.8,49.0,30.05,North,5,0.0,3.0,97,0.00,,---,0.00,VWS V14.00,2013-02-05 07:30:00,
2013-02-04 23:32:00,51.0,50.2,30.06,ENE,68,2.0,8.0,97,0.00,,---,0.00,VWS V14.00,2013-02-05 07:32:00,
2013-02-04 23:40:00,50.9,50.0,30.06,NE,49,0.0,5.0,97,0.00,,,0.00,weatherlink.com 1.10,2013-02-05 07:40:00,
2013-02-04 23:57:00,50.3,50.0,30.06,SE,132,2.0,5.0,97,0.00,,,0.00,weatherlink.com 1.10,2013-02-05 07:57:00,